Overview Statistics Trail Chart Weather Telemetry Raw packets
 

This is the latest recevied weather packets stored in our database for station/object KB1MS. If no packets are shown the sender has not sent any weather packets the latest 10 day(s).

<< 9 10 11 12 13 14 15 >>
Time Temp. Humidity Pressure Rain* Wind** Luminosity Snow
1788544838 28.33° C 47% 1008.2 hPa 0 mm - 682 W/m² -
1788544538 27.78° C 49% 1008.3 hPa 0 mm - 660 W/m² -
1788544236 27.78° C 49% 1008.3 hPa 0 mm - 685 W/m² -
1788543931 27.78° C 51% 1008.2 hPa 0 mm - 670 W/m² -
1788543629 26.67° C 54% 1008.3 hPa 0 mm - 674 W/m² -
1788543328 27.22° C 56% 1008.1 hPa 0 mm - 749 W/m² -
1788543024 26.67° C 55% 1008.3 hPa 0 mm - 802 W/m² -
1788542719 27.22° C 55% 1008.3 hPa 0 mm - 762 W/m² -
1788542419 27.22° C 57% 1008.3 hPa 0 mm - 718 W/m² -
1788542114 26.67° C 59% 1008.5 hPa 0 mm - 686 W/m² -
1788541810 26.11° C 59% 1008.5 hPa 0 mm - 192 W/m² -
1788541505 25.56° C 59% 1008.7 hPa 0 mm - 777 W/m² -
1788541200 26.11° C 59% 1008.6 hPa 0 mm - 171 W/m² -
1788540900 26.67° C 58% 1008.6 hPa 0 mm - 166 W/m² -
1788540600 27.22° C 60% 1008.5 hPa 0 mm - 282 W/m² -
1788540294 26.11° C 61% 1008.6 hPa 0 mm - 754 W/m² -
1788539990 25.56° C 63% 1008.7 hPa 0 mm - 166 W/m² -
1788539690 26.11° C 61% 1008.8 hPa 0 mm - 125 W/m² -
1788539390 26.67° C 59% 1008.7 hPa 0 mm - 154 W/m² -
1788539085 26.11° C 61% 1008.7 hPa 0 mm - 783 W/m² -
1788538780 26.67° C 60% 1008.9 hPa 0 mm - 732 W/m² -
1788538476 26.11° C 60% 1008.8 hPa 0 mm - 697 W/m² -
1788538172 25.56° C 61% 1009 hPa 0 mm - 700 W/m² -
1788537872 25.56° C 62% 1009 hPa 0 mm - 228 W/m² -
1788537567 26.11° C 61% 1008.9 hPa 0 mm - 169 W/m² -

* Rain latest hour (hover to see other rain measurements)
** Current wind speed in m/s (hover to see current wind gust speed)